Time;durP1;ratioP1;P1;durP2;ratioP2;P2;SDS_P1;SDS_P2;PMS_P1;PMS_P2;Temp;Humidity;BMP_temperature;BMP_pressure;BME280_temperature;BME280_humidity;BME280_pressure;Samples;Min_cycle;Max_cycle;Signal;HPM_P1;HPM_P2
2021/11/04 00:12:40;;;;;;;;;;;;;;;;;;2103239;28;1277;-91
2021/11/04 00:13:43;;;;;;;;;;;;;;;;;;2100334;28;1341;-91
2021/11/04 00:15:06;;;;;;;;;;;;;;;;;;2092088;28;1210;-92
2021/11/04 00:22:31;;;;;;;;;;;;;;;;;;2107810;28;1435;-91
2021/11/04 00:34:19;;;;;;;;;;;;;;;;;;2083122;28;587;-92
2021/11/04 00:45:57;;;;;;;;;;;;;;;;;;2067496;28;1052;-91
2021/11/04 00:47:00;;;;;;;;;;;;;;;;;;2082861;28;1207;-91
2021/11/04 00:48:04;;;;;;;;;;;;;;;;;;2088434;28;1224;-90
2021/11/04 00:49:06;;;;;;;;;;;;;;;;;;2099829;28;1231;-91
2021/11/04 00:50:13;;;;;;;;;;;;;;;;;;2091176;28;1702;-91
2021/11/04 00:51:16;;;;;;;;;;;;;;;;;;2092156;28;1223;-91
2021/11/04 00:52:18;;;;;;;;;;;;;;;;;;2107734;28;1301;-90
2021/11/04 00:53:20;;;;;;;;;;;;;;;;;;2098980;28;1233;-91
2021/11/04 00:54:27;;;;;;;;;;;;;;;;;;2108112;28;1111;-91
2021/11/04 00:55:29;;;;;;;;;;;;;;;;;;2099977;28;1243;-90
2021/11/04 00:56:30;;;;;;;;;;;;;;;;;;2097313;28;1239;-91
2021/11/04 00:57:36;;;;;;;;;;;;;;;;;;2108000;28;1509;-91
2021/11/04 00:58:42;;;;;;;;;;;;;;;;;;2091732;28;1304;-90
2021/11/04 00:59:48;;;;;;;;;;;;;;;;;;2092347;28;1404;-90
2021/11/04 01:00:50;;;;;;;;;;;;;;;;;;2099429;28;1416;-90
2021/11/04 01:01:52;;;;;;;;;;;;;;;;;;2099926;28;1278;-91
2021/11/04 01:02:55;;;;;;;;;;;;;;;;;;2108173;28;1909;-91
2021/11/04 01:03:57;;;;;;;;;;;;;;;;;;2115983;28;1181;-91
2021/11/04 01:05:03;;;;;;;;;;;;;;;;;;2099782;28;1265;-92
2021/11/04 01:06:06;;;;;;;;;;;;;;;;;;2108455;28;1242;-91
2021/11/04 01:07:09;;;;;;;;;;;;;;;;;;2107279;28;1429;-90
2021/11/04 01:08:12;;;;;;;;;;;;;;;;;;2107643;28;1254;-90
2021/11/04 01:09:14;;;;;;;;;;;;;;;;;;2107390;28;1227;-91
2021/11/04 01:10:16;;;;;;;;;;;;;;;;;;2107935;28;1244;-90
2021/11/04 01:11:22;;;;;;;;;;;;;;;;;;2107579;28;1317;-90
2021/11/04 01:12:27;;;;;;;;;;;;;;;;;;2092156;28;1235;-90
2021/11/04 01:13:27;;;;;;;;;;;;;;;;;;2107536;28;1301;-91
2021/11/04 01:14:31;;;;;;;;;;;;;;;;;;2099353;28;1417;-90
2021/11/04 01:15:36;;;;;;;;;;;;;;;;;;2108628;28;1072;-90
2021/11/04 01:16:38;;;;;;;;;;;;;;;;;;2116534;28;1223;-90
2021/11/04 01:17:39;;;;;;;;;;;;;;;;;;2107346;28;1193;-91
2021/11/04 01:18:43;;;;;;;;;;;;;;;;;;2091642;28;1440;-90
2021/11/04 01:19:47;;;;;;;;;;;;;;;;;;2091783;28;1417;-89
2021/11/04 01:20:50;;;;;;;;;;;;;;;;;;2099724;28;1277;-91
2021/11/04 01:21:54;;;;;;;;;;;;;;;;;;2107827;28;1238;-90
2021/11/04 01:22:56;;;;;;;;;;;;;;;;;;2115806;28;1906;-91
2021/11/04 01:23:57;;;;;;;;;;;;;;;;;;2107474;28;1415;-90
2021/11/04 01:24:59;;;;;;;;;;;;;;;;;;2099479;28;1334;-91
2021/11/04 01:26:03;;;;;;;;;;;;;;;;;;2100128;28;1183;-91
2021/11/04 01:35:05;;;;;;;;;;;;;;;;;;2116307;28;598;-92
2021/11/04 01:38:04;;;;;;;;;;;;;;;;;;2102086;28;1394;-92
2021/11/04 02:25:02;;;;;;;;;;;;;;;;;;2028284;29;956;-90
2021/11/04 02:45:20;;;;;;;;;;;;;;;;;;2027979;29;585;-91
2021/11/04 03:20:20;;;;;;;;;;;;;;;;;;2043649;29;584;-90
2021/11/04 03:21:23;;;;;;;;;;;;;;;;;;2049867;29;1290;-89
2021/11/04 03:22:25;;;;;;;;;;;;;;;;;;2043368;29;1213;-90
2021/11/04 03:23:28;;;;;;;;;;;;;;;;;;2027458;29;1977;-90
2021/11/04 03:24:29;;;;;;;;;;;;;;;;;;2035216;29;1300;-89
2021/11/04 03:25:31;;;;;;;;;;;;;;;;;;2077625;28;1321;-90
2021/11/04 03:26:34;;;;;;;;;;;;;;;;;;2106869;28;1318;-89
2021/11/04 03:27:38;;;;;;;;;;;;;;;;;;2100672;28;2111;-89
2021/11/04 03:28:41;;;;;;;;;;;;;;;;;;2100518;28;1371;-89
2021/11/04 03:29:42;;;;;;;;;;;;;;;;;;2100139;28;1411;-89
2021/11/04 03:30:48;;;;;;;;;;;;;;;;;;2100388;28;1238;-89
2021/11/04 03:31:49;;;;;;;;;;;;;;;;;;2108159;28;1360;-89
2021/11/04 03:32:52;;;;;;;;;;;;;;;;;;2099946;28;1310;-89
2021/11/04 03:40:13;;;;;;;;;;;;;;;;;;2082061;28;1630;-91
2021/11/04 03:41:20;;;;;;;;;;;;;;;;;;2094516;28;1296;-91
2021/11/04 03:42:38;;;;;;;;;;;;;;;;;;2092636;28;1297;-91
2021/11/04 03:43:51;;;;;;;;;;;;;;;;;;2102588;28;1913;-90
2021/11/04 03:51:04;;;;;;;;;;;;;;;;;;2091326;28;622;-90
2021/11/04 03:52:05;;;;;;;;;;;;;;;;;;2083026;28;1326;-89
2021/11/04 03:53:10;;;;;;;;;;;;;;;;;;2083205;28;1338;-90
2021/11/04 03:54:13;;;;;;;;;;;;;;;;;;2083514;28;1539;-89
2021/11/04 03:55:17;;;;;;;;;;;;;;;;;;2083020;28;1353;-89
2021/11/04 03:56:20;;;;;;;;;;;;;;;;;;2075411;28;1343;-89
2021/11/04 03:57:24;;;;;;;;;;;;;;;;;;2075183;28;1220;-89
2021/11/04 03:58:26;;;;;;;;;;;;;;;;;;2088625;28;1318;-89
2021/11/04 03:59:40;;;;;;;;;;;;;;;;;;2083374;28;1403;-91
2021/11/04 04:00:50;;;;;;;;;;;;;;;;;;2086276;28;1332;-91
2021/11/04 04:02:04;;;;;;;;;;;;;;;;;;2093432;28;1344;-90
2021/11/04 04:03:07;;;;;;;;;;;;;;;;;;2092482;28;1358;-91
2021/11/04 04:06:07;;;;;;;;;;;;;;;;;;2132321;27;1373;-89
2021/11/04 04:07:09;;;;;;;;;;;;;;;;;;2123518;27;1371;-89
2021/11/04 04:08:14;;;;;;;;;;;;;;;;;;2107646;28;1250;-90
2021/11/04 04:09:21;;;;;;;;;;;;;;;;;;2115561;28;1288;-89
2021/11/04 04:10:23;;;;;;;;;;;;;;;;;;2115650;28;1403;-90
2021/11/04 04:11:25;;;;;;;;;;;;;;;;;;2115725;28;1233;-91
2021/11/04 04:12:27;;;;;;;;;;;;;;;;;;2106795;28;1226;-90
2021/11/04 04:13:30;;;;;;;;;;;;;;;;;;2115288;28;1407;-90
2021/11/04 04:14:43;;;;;;;;;;;;;;;;;;2115715;28;1294;-90
2021/11/04 04:15:46;;;;;;;;;;;;;;;;;;2106859;28;1394;-89
2021/11/04 04:16:54;;;;;;;;;;;;;;;;;;2107499;28;1429;-89
2021/11/04 04:18:01;;;;;;;;;;;;;;;;;;2103359;28;2031;-90
2021/11/04 04:19:11;;;;;;;;;;;;;;;;;;2108118;28;1260;-90
2021/11/04 04:20:19;;;;;;;;;;;;;;;;;;2115714;28;1336;-89
2021/11/04 04:23:45;;;;;;;;;;;;;;;;;;2115794;28;591;-90
2021/11/04 04:24:48;;;;;;;;;;;;;;;;;;2114964;28;1189;-89
2021/11/04 04:26:11;;;;;;;;;;;;;;;;;;2114394;28;2047;-91
2021/11/04 04:27:21;;;;;;;;;;;;;;;;;;2109877;28;1324;-91
2021/11/04 04:29:04;;;;;;;;;;;;;;;;;;2106809;28;1233;-91
2021/11/04 04:30:10;;;;;;;;;;;;;;;;;;2115291;28;1276;-90
2021/11/04 04:32:07;;;;;;;;;;;;;;;;;;;;;
2021/11/04 04:38:57;;;;;;;;;;;;;;;;;;2115271;28;1366;-89
2021/11/04 04:40:00;;;;;;;;;;;;;;;;;;2106513;28;1230;-89
2021/11/04 04:43:35;;;;;;;;;;;;;;;;;;2115808;28;617;-91
2021/11/04 04:44:51;;;;;;;;;;;;;;;;;;2114911;28;1565;-90
2021/11/04 04:45:54;;;;;;;;;;;;;;;;;;2106536;28;2016;-90
2021/11/04 04:46:58;;;;;;;;;;;;;;;;;;2107046;28;1082;-89
2021/11/04 04:47:58;;;;;;;;;;;;;;;;;;2114650;28;1362;-90
2021/11/04 04:49:02;;;;;;;;;;;;;;;;;;2106642;28;1277;-90
2021/11/04 04:50:04;;;;;;;;;;;;;;;;;;2106687;28;1229;-90
2021/11/04 04:51:06;;;;;;;;;;;;;;;;;;2097996;28;1397;-90
2021/11/04 04:52:10;;;;;;;;;;;;;;;;;;2099458;28;1372;-90
2021/11/04 04:53:14;;;;;;;;;;;;;;;;;;2106525;28;1205;-90
2021/11/04 04:54:15;;;;;;;;;;;;;;;;;;2114921;28;1213;-89
2021/11/04 04:55:34;;;;;;;;;;;;;;;;;;2114993;28;1053;-89
2021/11/04 04:56:41;;;;;;;;;;;;;;;;;;2106759;28;1299;-90
2021/11/04 04:57:45;;;;;;;;;;;;;;;;;;2106739;28;1273;-91
2021/11/04 04:58:50;;;;;;;;;;;;;;;;;;2106733;28;1269;-90
2021/11/04 05:00:10;;;;;;;;;;;;;;;;;;2098876;28;1370;-91
2021/11/04 05:01:49;;;;;;;;;;;;;;;;;;2096636;28;1253;-90
2021/11/04 05:05:04;;;;;;;;;;;;;;;;;;2106134;28;1138;-88
2021/11/04 05:06:23;;;;;;;;;;;;;;;;;;;;;
2021/11/04 05:11:20;;;;;;;;;;;;;;;;;;2111450;28;1539;-90
2021/11/04 05:12:24;;;;;;;;;;;;;;;;;;2102162;28;1407;-91
2021/11/04 05:13:34;;;;;;;;;;;;;;;;;;2089813;28;1222;-91
2021/11/04 05:14:40;;;;;;;;;;;;;;;;;;2088517;28;1452;-91
2021/11/04 05:15:42;;;;;;;;;;;;;;;;;;2096807;28;1815;-90
2021/11/04 05:18:07;;;;;;;;;;;;;;;;;;2098299;28;1303;-90
2021/11/04 05:19:31;;;;;;;;;;;;;;;;;;2085567;28;1447;-90
2021/11/04 05:20:44;;;;;;;;;;;;;;;;;;2091270;28;1486;-90
2021/11/04 05:24:01;;;;;;;;;;;;;;;;;;2103705;28;1296;-89
2021/11/04 05:25:02;;;;;;;;;;;;;;;;;;2100535;28;1288;-86
2021/11/04 05:26:03;;;;;;;;;;;;;;;;;;2092102;28;1969;-83
2021/11/04 05:27:06;;;;;;;;;;;;;;;;;;2091853;28;1281;-83
2021/11/04 05:28:14;;;;;;;;;;;;;;;;;;2092390;28;1320;-83
2021/11/04 05:29:18;;;;;;;;;;;;;;;;;;2093884;28;804;-83
2021/11/04 05:30:23;;;;;;;;;;;;;;;;;;2100553;28;1276;-82
2021/11/04 05:31:25;;;;;;;;;;;;;;;;;;2100275;28;900;-83
2021/11/04 05:32:25;;;;;;;;;;;;;;;;;;2100034;28;1328;-85
2021/11/04 05:33:28;;;;;;;;;;;;;;;;;;2092162;28;1568;-83
2021/11/04 05:34:29;;;;;;;;;;;;;;;;;;2100081;28;1288;-84
2021/11/04 05:35:31;;;;;;;;;;;;;;;;;;2092246;28;1229;-83
2021/11/04 05:36:32;;;;;;;;;;;;;;;;;;2091869;28;1361;-82
2021/11/04 05:37:34;;;;;;;;;;;;;;;;;;2092153;28;1206;-84
2021/11/04 05:38:35;;;;;;;;;;;;;;;;;;2092033;28;1584;-82
2021/11/04 05:39:37;;;;;;;;;;;;;;;;;;2092057;28;1301;-88
2021/11/04 05:40:39;;;;;;;;;;;;;;;;;;2100385;28;1229;-86
2021/11/04 05:41:40;;;;;;;;;;;;;;;;;;2099817;28;1364;-83
2021/11/04 05:42:44;;;;;;;;;;;;;;;;;;2100190;28;1396;-84
2021/11/04 05:43:46;;;;;;;;;;;;;;;;;;2108956;28;1063;-83
2021/11/04 05:44:47;;;;;;;;;;;;;;;;;;2108659;28;1318;-83
2021/11/04 05:45:49;;;;;;;;;;;;;;;;;;2100127;28;1909;-83
2021/11/04 05:46:50;;;;;;;;;;;;;;;;;;2099961;28;1403;-83
2021/11/04 05:47:52;;;;;;;;;;;;;;;;;;2099878;28;1246;-82
2021/11/04 05:48:52;;;;;;;;;;;;;;;;;;2108308;28;1205;-82
2021/11/04 05:49:55;;;;;;;;;;;;;;;;;;2100387;28;1229;-82
2021/11/04 05:50:56;;;;;;;;;;;;;;;;;;2100145;28;1412;-82
2021/11/04 05:51:57;;;;;;;;;;;;;;;;;;2100282;28;1207;-82
2021/11/04 05:53:00;;;;;;;;;;;;;;;;;;2104876;28;2054;-84
2021/11/04 05:54:01;;;;;;;;;;;;;;;;;;2092486;28;1313;-83
2021/11/04 05:55:03;;;;;;;;;;;;;;;;;;2091618;28;1322;-83
2021/11/04 05:56:05;;;;;;;;;;;;;;;;;;2100552;28;1316;-83
2021/11/04 05:57:06;;;;;;;;;;;;;;;;;;2092430;28;1342;-83
2021/11/04 05:58:11;;;;;;;;;;;;;;;;;;2099830;28;1209;-83
2021/11/04 05:59:12;;;;;;;;;;;;;;;;;;2099882;28;1202;-83
2021/11/04 06:00:14;;;;;;;;;;;;;;;;;;2100146;28;1254;-82
2021/11/04 06:01:15;;;;;;;;;;;;;;;;;;2096154;28;1474;-83
2021/11/04 06:02:16;;;;;;;;;;;;;;;;;;2099747;28;1290;-83
2021/11/04 06:03:17;;;;;;;;;;;;;;;;;;2093902;28;1403;-83
2021/11/04 06:04:19;;;;;;;;;;;;;;;;;;2099996;28;1327;-83
2021/11/04 06:05:20;;;;;;;;;;;;;;;;;;2094265;28;1473;-83
2021/11/04 06:06:23;;;;;;;;;;;;;;;;;;2100112;28;1972;-83
2021/11/04 06:07:25;;;;;;;;;;;;;;;;;;2109301;28;1433;-84
2021/11/04 06:08:27;;;;;;;;;;;;;;;;;;2106465;28;1353;-83
2021/11/04 06:09:27;;;;;;;;;;;;;;;;;;2107871;28;1399;-84
2021/11/04 06:10:29;;;;;;;;;;;;;;;;;;2108552;28;1467;-84
2021/11/04 06:11:30;;;;;;;;;;;;;;;;;;2108932;28;2141;-83
2021/11/04 06:12:32;;;;;;;;;;;;;;;;;;2116076;28;1404;-84
2021/11/04 06:13:36;;;;;;;;;;;;;;;;;;2108391;28;1273;-84
2021/11/04 06:14:38;;;;;;;;;;;;;;;;;;2108736;28;1394;-84
2021/11/04 06:15:40;;;;;;;;;;;;;;;;;;2115657;28;1472;-85
2021/11/04 06:16:42;;;;;;;;;;;;;;;;;;2107566;28;1442;-84
2021/11/04 06:17:43;;;;;;;;;;;;;;;;;;2104362;28;1761;-84
2021/11/04 06:18:45;;;;;;;;;;;;;;;;;;2108275;28;1277;-84
2021/11/04 06:19:47;;;;;;;;;;;;;;;;;;2099594;28;1409;-84
2021/11/04 06:20:48;;;;;;;;;;;;;;;;;;2103276;28;1680;-84
2021/11/04 06:21:49;;;;;;;;;;;;;;;;;;2107365;28;1269;-83
2021/11/04 06:22:52;;;;;;;;;;;;;;;;;;2100065;28;1487;-83
2021/11/04 06:23:52;;;;;;;;;;;;;;;;;;2102643;28;1353;-83
2021/11/04 06:24:54;;;;;;;;;;;;;;;;;;2110776;28;1327;-83
2021/11/04 06:25:55;;;;;;;;;;;;;;;;;;2115556;28;2095;-82
2021/11/04 06:26:57;;;;;;;;;;;;;;;;;;2112766;28;1344;-83
2021/11/04 06:27:59;;;;;;;;;;;;;;;;;;2104395;28;1396;-84
2021/11/04 06:29:01;;;;;;;;;;;;;;;;;;2105243;28;1336;-84
2021/11/04 06:30:04;;;;;;;;;;;;;;;;;;2112637;28;1331;-84
2021/11/04 06:31:05;;;;;;;;;;;;;;;;;;2115638;28;1837;-84
2021/11/04 06:32:07;;;;;;;;;;;;;;;;;;2105488;28;1400;-84
2021/11/04 06:33:09;;;;;;;;;;;;;;;;;;2105901;28;2117;-83
2021/11/04 06:34:09;;;;;;;;;;;;;;;;;;2108576;28;1366;-83
2021/11/04 06:35:12;;;;;;;;;;;;;;;;;;2115686;28;1329;-83
2021/11/04 06:36:13;;;;;;;;;;;;;;;;;;2104450;28;2042;-83
2021/11/04 06:37:15;;;;;;;;;;;;;;;;;;2115940;28;1301;-83
2021/11/04 06:38:15;;;;;;;;;;;;;;;;;;2114941;28;2048;-86
2021/11/04 06:39:17;;;;;;;;;;;;;;;;;;2113345;28;1329;-84
2021/11/04 06:40:24;;;;;;;;;;;;;;;;;;2103222;28;1396;-83
2021/11/04 06:41:25;;;;;;;;;;;;;;;;;;2102192;28;1360;-84
2021/11/04 06:42:30;;;;;;;;;;;;;;;;;;2108029;28;1332;-84
2021/11/04 06:43:30;;;;;;;;;;;;;;;;;;2091756;28;1357;-84
2021/11/04 06:44:34;;;;;;;;;;;;;;;;;;2091278;28;1389;-83
2021/11/04 06:45:37;;;;;;;;;;;;;;;;;;2100240;28;1288;-84
2021/11/04 06:46:41;;;;;;;;;;;;;;;;;;2100566;28;1909;-83
2021/11/04 06:47:45;;;;;;;;;;;;;;;;;;2109761;28;1709;-84
2021/11/04 06:48:49;;;;;;;;;;;;;;;;;;2108097;28;1348;-84
2021/11/04 06:49:52;;;;;;;;;;;;;;;;;;2103220;28;1281;-83
2021/11/04 06:50:55;;;;;;;;;;;;;;;;;;2102761;28;1665;-84
2021/11/04 06:51:57;;;;;;;;;;;;;;;;;;2104323;28;1448;-84
2021/11/04 06:53:01;;;;;;;;;;;;;;;;;;2103144;28;1353;-85
2021/11/04 06:54:04;;;;;;;;;;;;;;;;;;2099132;28;1445;-84
2021/11/04 06:55:06;;;;;;;;;;;;;;;;;;2107571;28;1341;-85
2021/11/04 06:56:07;;;;;;;;;;;;;;;;;;2107596;28;2048;-84
2021/11/04 06:57:17;;;;;;;;;;;;;;;;;;2099813;28;1218;-84
2021/11/04 06:58:22;;;;;;;;;;;;;;;;;;2106174;28;1301;-84
2021/11/04 06:59:24;;;;;;;;;;;;;;;;;;2107220;28;1336;-84
2021/11/04 07:00:30;;;;;;;;;;;;;;;;;;2107389;28;1360;-84
2021/11/04 07:01:32;;;;;;;;;;;;;;;;;;2100086;28;1878;-83
2021/11/04 07:02:35;;;;;;;;;;;;;;;;;;2102729;28;1779;-86
2021/11/04 07:03:41;;;;;;;;;;;;;;;;;;2114294;28;1328;-84
2021/11/04 07:04:43;;;;;;;;;;;;;;;;;;2109679;28;1305;-84
2021/11/04 07:05:46;;;;;;;;;;;;;;;;;;2099180;28;1403;-84
2021/11/04 07:06:48;;;;;;;;;;;;;;;;;;2113549;28;1975;-84
2021/11/04 07:07:52;;;;;;;;;;;;;;;;;;2101398;28;1286;-83
2021/11/04 07:08:54;;;;;;;;;;;;;;;;;;2110725;28;1332;-84
2021/11/04 07:09:56;;;;;;;;;;;;;;;;;;2107487;28;1208;-84
2021/11/04 07:10:58;;;;;;;;;;;;;;;;;;2108036;28;908;-89
2021/11/04 07:12:01;;;;;;;;;;;;;;;;;;2099822;28;1258;-84
2021/11/04 07:13:03;;;;;;;;;;;;;;;;;;2091692;28;1416;-84
2021/11/04 07:14:03;;;;;;;;;;;;;;;;;;2099473;28;1276;-83
2021/11/04 07:15:06;;;;;;;;;;;;;;;;;;2107840;28;1329;-84
2021/11/04 07:16:11;;;;;;;;;;;;;;;;;;2107826;28;1873;-83
2021/11/04 07:17:14;;;;;;;;;;;;;;;;;;2099676;28;1235;-82
2021/11/04 07:18:19;;;;;;;;;;;;;;;;;;2099887;28;1223;-83
2021/11/04 07:19:23;;;;;;;;;;;;;;;;;;2100169;28;1175;-81
2021/11/04 07:20:25;;;;;;;;;;;;;;;;;;2099576;28;1313;-83
2021/11/04 07:21:31;;;;;;;;;;;;;;;;;;2105081;28;1238;-82
2021/11/04 07:22:35;;;;;;;;;;;;;;;;;;2100271;28;1265;-83
2021/11/04 07:23:40;;;;;;;;;;;;;;;;;;2099337;28;1242;-83
2021/11/04 07:24:44;;;;;;;;;;;;;;;;;;2100594;28;1234;-83
2021/11/04 07:25:49;;;;;;;;;;;;;;;;;;2107883;28;1945;-83
2021/11/04 07:26:54;;;;;;;;;;;;;;;;;;2107478;28;2057;-82
2021/11/04 07:27:57;;;;;;;;;;;;;;;;;;2102409;28;1211;-83
2021/11/04 07:29:00;;;;;;;;;;;;;;;;;;2099357;28;1271;-84
2021/11/04 07:30:03;;;;;;;;;;;;;;;;;;2091189;28;1441;-82
2021/11/04 07:31:06;;;;;;;;;;;;;;;;;;2102467;28;2045;-83
2021/11/04 07:32:09;;;;;;;;;;;;;;;;;;2107709;28;1320;-84
2021/11/04 07:33:15;;;;;;;;;;;;;;;;;;2104346;28;2102;-84
2021/11/04 07:34:18;;;;;;;;;;;;;;;;;;2099861;28;1260;-84
2021/11/04 07:35:20;;;;;;;;;;;;;;;;;;2099168;28;1250;-83
2021/11/04 07:36:24;;;;;;;;;;;;;;;;;;2106183;28;1201;-83
2021/11/04 07:37:30;;;;;;;;;;;;;;;;;;2099420;28;1419;-83
2021/11/04 07:38:33;;;;;;;;;;;;;;;;;;2099799;28;1376;-83
2021/11/04 07:39:34;;;;;;;;;;;;;;;;;;2108099;28;1325;-84
2021/11/04 07:40:37;;;;;;;;;;;;;;;;;;2107930;28;1357;-84
2021/11/04 07:41:38;;;;;;;;;;;;;;;;;;2099080;28;1449;-83
2021/11/04 07:42:40;;;;;;;;;;;;;;;;;;2099093;28;1520;-84
2021/11/04 07:43:41;;;;;;;;;;;;;;;;;;2107761;28;937;-83
2021/11/04 07:44:43;;;;;;;;;;;;;;;;;;2107469;28;1188;-83
2021/11/04 07:45:45;;;;;;;;;;;;;;;;;;2098979;28;1325;-83
2021/11/04 07:46:46;;;;;;;;;;;;;;;;;;2099305;28;1979;-83
2021/11/04 07:47:49;;;;;;;;;;;;;;;;;;2107355;28;1318;-83
2021/11/04 07:48:51;;;;;;;;;;;;;;;;;;2107249;28;1313;-83
2021/11/04 07:49:53;;;;;;;;;;;;;;;;;;2099493;28;1316;-83
2021/11/04 07:50:55;;;;;;;;;;;;;;;;;;2091273;28;1382;-84
2021/11/04 07:52:00;;;;;;;;;;;;;;;;;;2091208;28;1349;-83
2021/11/04 07:53:02;;;;;;;;;;;;;;;;;;2094797;28;1931;-84
2021/11/04 07:54:03;;;;;;;;;;;;;;;;;;2099494;28;1222;-83
2021/11/04 07:55:06;;;;;;;;;;;;;;;;;;2107406;28;1265;-83
2021/11/04 07:56:08;;;;;;;;;;;;;;;;;;2099681;28;2116;-83
2021/11/04 07:57:10;;;;;;;;;;;;;;;;;;2099590;28;1345;-83
2021/11/04 07:58:12;;;;;;;;;;;;;;;;;;2099132;28;1226;-84
2021/11/04 07:59:14;;;;;;;;;;;;;;;;;;2099574;28;1390;-83
2021/11/04 08:00:15;;;;;;;;;;;;;;;;;;2099158;28;1171;-83
2021/11/04 08:01:17;;;;;;;;;;;;;;;;;;2099540;28;1373;-85
2021/11/04 08:02:19;;;;;;;;;;;;;;;;;;2099689;28;1369;-84
2021/11/04 08:03:21;;;;;;;;;;;;;;;;;;2107298;28;1213;-84
2021/11/04 08:04:23;;;;;;;;;;;;;;;;;;2099641;28;1319;-83
2021/11/04 08:05:25;;;;;;;;;;;;;;;;;;2091231;28;1772;-84
2021/11/04 08:06:26;;;;;;;;;;;;;;;;;;2105423;28;2032;-84
2021/11/04 08:07:32;;;;;;;;;;;;;;;;;;2099108;28;1223;-83
2021/11/04 08:08:35;;;;;;;;;;;;;;;;;;2092521;28;1946;-82
2021/11/04 08:09:36;;;;;;;;;;;;;;;;;;2107106;28;1311;-84
2021/11/04 08:10:38;;;;;;;;;;;;;;;;;;2107254;28;1578;-85
2021/11/04 08:11:38;;;;;;;;;;;;;;;;;;2099267;28;1987;-82
2021/11/04 08:12:40;;;;;;;;;;;;;;;;;;2102012;28;1510;-84
2021/11/04 08:13:42;;;;;;;;;;;;;;;;;;2099310;28;1466;-85
2021/11/04 08:14:44;;;;;;;;;;;;;;;;;;2107710;28;1412;-85
2021/11/04 08:15:46;;;;;;;;;;;;;;;;;;2099501;28;1858;-84
2021/11/04 08:16:49;;;;;;;;;;;;;;;;;;2107975;28;1324;-83
2021/11/04 08:17:51;;;;;;;;;;;;;;;;;;2112912;28;1847;-83
2021/11/04 08:18:53;;;;;;;;;;;;;;;;;;2091319;28;1581;-82
2021/11/04 08:19:55;;;;;;;;;;;;;;;;;;2091162;28;1231;-83
2021/11/04 08:20:56;;;;;;;;;;;;;;;;;;2099595;28;1278;-83
2021/11/04 08:21:58;;;;;;;;;;;;;;;;;;2106292;28;1361;-83
2021/11/04 08:22:59;;;;;;;;;;;;;;;;;;2105146;28;1355;-83
2021/11/04 08:24:00;;;;;;;;;;;;;;;;;;2103513;28;1645;-86
2021/11/04 08:25:01;;;;;;;;;;;;;;;;;;2107151;28;1281;-83
2021/11/04 08:26:05;;;;;;;;;;;;;;;;;;2099171;28;1721;-83
2021/11/04 08:27:05;;;;;;;;;;;;;;;;;;2101485;28;1971;-83
2021/11/04 08:28:08;;;;;;;;;;;;;;;;;;2105304;28;1337;-83
2021/11/04 08:29:08;;;;;;;;;;;;;;;;;;2107246;28;1365;-83
2021/11/04 08:30:15;;;;;;;;;;;;;;;;;;2107240;28;1432;-84
2021/11/04 08:31:16;;;;;;;;;;;;;;;;;;2107835;28;1382;-83
2021/11/04 08:32:18;;;;;;;;;;;;;;;;;;2107675;28;1229;-83
2021/11/04 08:33:19;;;;;;;;;;;;;;;;;;2109687;28;1688;-86
2021/11/04 08:34:23;;;;;;;;;;;;;;;;;;2099709;28;1267;-86
2021/11/04 08:35:26;;;;;;;;;;;;;;;;;;2091388;28;1333;-86
2021/11/04 08:36:29;;;;;;;;;;;;;;;;;;2100137;28;1344;-86
2021/11/04 08:37:29;;;;;;;;;;;;;;;;;;2099444;28;1293;-89
2021/11/04 08:38:32;;;;;;;;;;;;;;;;;;2099248;28;1271;-90
2021/11/04 08:39:33;;;;;;;;;;;;;;;;;;2099756;28;1270;-90
2021/11/04 08:40:35;;;;;;;;;;;;;;;;;;2099227;28;1348;-90
2021/11/04 08:41:36;;;;;;;;;;;;;;;;;;2099596;28;1222;-89
2021/11/04 08:42:39;;;;;;;;;;;;;;;;;;2107280;28;1478;-90
2021/11/04 08:43:41;;;;;;;;;;;;;;;;;;2099205;28;1394;-90
2021/11/04 08:44:44;;;;;;;;;;;;;;;;;;2099657;28;1229;-90
2021/11/04 08:45:46;;;;;;;;;;;;;;;;;;2099247;28;1360;-90
2021/11/04 08:46:50;;;;;;;;;;;;;;;;;;2100092;28;1906;-86
2021/11/04 08:47:54;;;;;;;;;;;;;;;;;;2099134;28;1313;-86
2021/11/04 08:48:55;;;;;;;;;;;;;;;;;;2099472;28;1296;-86
2021/11/04 08:49:59;;;;;;;;;;;;;;;;;;2090825;28;1242;-86
2021/11/04 08:51:03;;;;;;;;;;;;;;;;;;2083746;28;1215;-86
2021/11/04 08:52:08;;;;;;;;;;;;;;;;;;2091629;28;1283;-88
2021/11/04 08:53:09;;;;;;;;;;;;;;;;;;2101230;28;1363;-91
2021/11/04 08:54:12;;;;;;;;;;;;;;;;;;2092741;28;1222;-83
2021/11/04 08:55:13;;;;;;;;;;;;;;;;;;2092659;28;1354;-83
2021/11/04 08:56:15;;;;;;;;;;;;;;;;;;2100879;28;1194;-84
2021/11/04 08:57:16;;;;;;;;;;;;;;;;;;2108645;28;1216;-84
2021/11/04 08:58:18;;;;;;;;;;;;;;;;;;2109071;28;1298;-84
2021/11/04 08:59:20;;;;;;;;;;;;;;;;;;2100225;28;1195;-84
2021/11/04 09:00:21;;;;;;;;;;;;;;;;;;2100443;28;1231;-84
2021/11/04 09:01:25;;;;;;;;;;;;;;;;;;2100656;28;1334;-84
2021/11/04 09:02:27;;;;;;;;;;;;;;;;;;2101360;28;1349;-85
2021/11/04 09:03:29;;;;;;;;;;;;;;;;;;2101117;28;1222;-84
2021/11/04 09:04:30;;;;;;;;;;;;;;;;;;2100875;28;1495;-84
2021/11/04 09:05:34;;;;;;;;;;;;;;;;;;2089895;28;1451;-85
2021/11/04 09:06:36;;;;;;;;;;;;;;;;;;2092684;28;1277;-84
2021/11/04 09:07:39;;;;;;;;;;;;;;;;;;2100531;28;1910;-84
2021/11/04 09:08:41;;;;;;;;;;;;;;;;;;2108677;28;1293;-82
2021/11/04 09:09:43;;;;;;;;;;;;;;;;;;2100275;28;1399;-83
2021/11/04 09:10:44;;;;;;;;;;;;;;;;;;2101104;28;1295;-84
2021/11/04 09:11:47;;;;;;;;;;;;;;;;;;2109085;28;1221;-84
2021/11/04 09:12:49;;;;;;;;;;;;;;;;;;2116991;28;1230;-84
2021/11/04 09:13:51;;;;;;;;;;;;;;;;;;2109080;28;1239;-84
2021/11/04 09:14:52;;;;;;;;;;;;;;;;;;2109133;28;1345;-84
2021/11/04 09:15:54;;;;;;;;;;;;;;;;;;2117316;28;814;-84
2021/11/04 09:16:55;;;;;;;;;;;;;;;;;;2117438;28;1362;-84
2021/11/04 09:17:59;;;;;;;;;;;;;;;;;;2108807;28;1327;-84
2021/11/04 09:18:59;;;;;;;;;;;;;;;;;;2108736;28;1333;-85
2021/11/04 09:20:01;;;;;;;;;;;;;;;;;;2108900;28;1298;-85
2021/11/04 09:21:05;;;;;;;;;;;;;;;;;;2105008;28;1244;-83
2021/11/04 09:22:06;;;;;;;;;;;;;;;;;;2100913;28;1687;-82
2021/11/04 09:23:08;;;;;;;;;;;;;;;;;;2108345;28;2077;-83
2021/11/04 09:24:08;;;;;;;;;;;;;;;;;;2108873;28;1516;-82
2021/11/04 09:25:10;;;;;;;;;;;;;;;;;;2109034;28;1353;-82
2021/11/04 09:26:12;;;;;;;;;;;;;;;;;;2099955;28;1698;-82
2021/11/04 09:27:13;;;;;;;;;;;;;;;;;;2108084;28;1913;-82
2021/11/04 09:28:15;;;;;;;;;;;;;;;;;;2104670;28;1711;-83
2021/11/04 09:29:15;;;;;;;;;;;;;;;;;;2108596;28;1417;-82
2021/11/04 09:30:18;;;;;;;;;;;;;;;;;;2108788;28;1349;-83
2021/11/04 09:31:20;;;;;;;;;;;;;;;;;;2108714;28;1279;-83
2021/11/04 09:32:22;;;;;;;;;;;;;;;;;;2100659;28;1603;-82
2021/11/04 09:33:23;;;;;;;;;;;;;;;;;;2100290;28;1654;-83
2021/11/04 09:34:25;;;;;;;;;;;;;;;;;;2100012;28;1659;-87
2021/11/04 09:35:27;;;;;;;;;;;;;;;;;;2100151;28;1320;-86
2021/11/04 09:36:32;;;;;;;;;;;;;;;;;;2092433;28;1314;-86
2021/11/04 09:37:33;;;;;;;;;;;;;;;;;;2092809;28;2183;-88
2021/11/04 09:38:35;;;;;;;;;;;;;;;;;;2100036;28;1210;-87
2021/11/04 09:39:36;;;;;;;;;;;;;;;;;;2100119;28;1211;-88
2021/11/04 09:40:38;;;;;;;;;;;;;;;;;;2100065;28;1419;-84
2021/11/04 09:41:40;;;;;;;;;;;;;;;;;;2099895;28;1195;-84
2021/11/04 09:42:42;;;;;;;;;;;;;;;;;;2099961;28;1365;-84
2021/11/04 09:43:45;;;;;;;;;;;;;;;;;;2100348;28;1220;-84
2021/11/04 09:44:46;;;;;;;;;;;;;;;;;;2100091;28;1261;-84
2021/11/04 09:45:47;;;;;;;;;;;;;;;;;;2099799;28;1356;-84
2021/11/04 09:46:48;;;;;;;;;;;;;;;;;;2100178;28;1417;-84
2021/11/04 09:47:50;;;;;;;;;;;;;;;;;;2101392;28;1997;-84
2021/11/04 09:48:51;;;;;;;;;;;;;;;;;;2117039;28;1265;-87
2021/11/04 09:49:54;;;;;;;;;;;;;;;;;;2117167;28;1292;-85
2021/11/04 09:50:55;;;;;;;;;;;;;;;;;;2106267;28;1392;-86
2021/11/04 09:51:59;;;;;;;;;;;;;;;;;;2100283;28;1413;-85
2021/11/04 09:53:01;;;;;;;;;;;;;;;;;;2108041;28;1376;-85
2021/11/04 09:54:02;;;;;;;;;;;;;;;;;;2108451;28;1253;-85
2021/11/04 09:55:04;;;;;;;;;;;;;;;;;;2108187;28;1358;-86
2021/11/04 09:56:05;;;;;;;;;;;;;;;;;;2100426;28;1294;-85
2021/11/04 09:57:08;;;;;;;;;;;;;;;;;;2100345;28;1441;-86
2021/11/04 09:58:10;;;;;;;;;;;;;;;;;;2108537;28;1337;-86
2021/11/04 09:59:11;;;;;;;;;;;;;;;;;;2108273;28;1468;-86
2021/11/04 10:00:13;;;;;;;;;;;;;;;;;;2108312;28;1244;-85
2021/11/04 10:01:16;;;;;;;;;;;;;;;;;;2113441;28;2110;-86
2021/11/04 10:02:19;;;;;;;;;;;;;;;;;;2109082;28;1348;-86
2021/11/04 10:03:21;;;;;;;;;;;;;;;;;;2102104;28;1275;-86
2021/11/04 10:04:31;;;;;;;;;;;;;;;;;;2099933;28;1316;-86
2021/11/04 10:05:39;;;;;;;;;;;;;;;;;;2101290;28;1242;-85
2021/11/04 10:06:41;;;;;;;;;;;;;;;;;;2101200;28;1168;-85
2021/11/04 10:07:45;;;;;;;;;;;;;;;;;;2099937;28;1961;-87
2021/11/04 10:08:49;;;;;;;;;;;;;;;;;;2100525;28;1246;-86
2021/11/04 10:10:00;;;;;;;;;;;;;;;;;;2108804;28;1344;-85
2021/11/04 10:11:06;;;;;;;;;;;;;;;;;;2101708;28;1360;-86
2021/11/04 10:12:09;;;;;;;;;;;;;;;;;;2100730;28;1252;-86
2021/11/04 10:13:12;;;;;;;;;;;;;;;;;;2096116;28;1356;-86
2021/11/04 10:14:14;;;;;;;;;;;;;;;;;;2092294;28;1375;-86
2021/11/04 10:15:15;;;;;;;;;;;;;;;;;;2108346;28;1251;-87
2021/11/04 10:16:19;;;;;;;;;;;;;;;;;;2108546;28;1238;-86
2021/11/04 10:17:27;;;;;;;;;;;;;;;;;;2100282;28;1211;-86
2021/11/04 10:18:29;;;;;;;;;;;;;;;;;;2100832;28;1220;-86
2021/11/04 10:19:40;;;;;;;;;;;;;;;;;;2100074;28;1265;-85
2021/11/04 10:20:41;;;;;;;;;;;;;;;;;;2102025;28;1412;-87
2021/11/04 10:21:44;;;;;;;;;;;;;;;;;;2091946;28;1433;-86
2021/11/04 10:22:57;;;;;;;;;;;;;;;;;;2091846;28;1319;-86
2021/11/04 10:23:59;;;;;;;;;;;;;;;;;;2101579;28;1194;-88
2021/11/04 10:25:00;;;;;;;;;;;;;;;;;;2100341;28;1297;-86
2021/11/04 10:26:06;;;;;;;;;;;;;;;;;;2100359;28;1242;-87